Clinton, Washington
Current Conditions -  °F | °C
As of 10:53 PM on Saturday 22 Nov 2014 (Local Time) from KPAE Reporting Station
Broken Clouds Broken Clouds  
Wind Chill: 40°   Ceiling: 7500
Heat Index: 45°   Visibility: 10mi
Dew Point: 41°   Wind: 10mph
Humidity: 86%   Direction: 170°S
Pressure: 30.1"   Gusts: NA
Location:  47.98°N, 122.36°W
Report Text: KPAE 230653Z AUTO 17009KT 10SM BKN075 BKN100 07/05 A3010 RMK AO2 SLP196 T00720050 $
Loading
Personal Weather Stations






























Interactive Weather Map New forecast layout! Learn more

10-Day Weather Forecast

Advertisements
Track Severe Weather on mobile